createdAt,value
2023-03-06T00:02:17.537Z,510.00
2023-03-06T00:06:17.649Z,506.00
2023-03-06T00:10:17.736Z,510.00
2023-03-06T00:14:17.858Z,513.00
2023-03-06T00:18:18.007Z,509.00
2023-03-06T00:22:18.116Z,504.00
2023-03-06T00:26:18.190Z,509.00
2023-03-06T00:30:18.328Z,506.00
2023-03-06T00:34:18.478Z,509.00
2023-03-06T00:38:18.511Z,510.00
2023-03-06T00:42:18.646Z,504.00
2023-03-06T00:46:18.794Z,509.00
2023-03-06T00:50:18.925Z,509.00
2023-03-06T00:54:19.001Z,511.00
2023-03-06T00:58:19.118Z,508.00
2023-03-06T01:02:19.289Z,504.00
2023-03-06T01:06:19.336Z,508.00
2023-03-06T01:10:19.435Z,508.00
2023-03-06T01:14:19.550Z,500.00
2023-03-06T01:18:19.670Z,512.00
2023-03-06T01:22:19.825Z,507.00
2023-03-06T01:26:19.931Z,512.00
2023-03-06T01:30:20.093Z,516.00
2023-03-06T01:34:20.205Z,510.00
2023-03-06T01:38:20.336Z,502.00
2023-03-06T01:42:20.476Z,508.00
2023-03-06T01:46:20.659Z,505.00
2023-03-06T01:50:20.768Z,508.00
2023-03-06T01:54:20.906Z,514.00
2023-03-06T01:58:21.014Z,509.00
2023-03-06T02:02:21.189Z,515.00
2023-03-06T02:06:21.266Z,511.00
2023-03-06T02:10:21.380Z,510.00
2023-03-06T02:14:21.537Z,509.00
2023-03-06T02:18:21.663Z,507.00
2023-03-06T02:22:21.817Z,512.00
2023-03-06T02:26:21.913Z,514.00
2023-03-06T02:30:22.047Z,512.00
2023-03-06T02:34:22.236Z,509.00
2023-03-06T02:38:22.350Z,512.00
2023-03-06T02:42:22.536Z,509.00
2023-03-06T02:46:22.688Z,515.00
2023-03-06T02:50:22.870Z,516.00
2023-03-06T02:54:23.045Z,506.00
2023-03-06T02:58:23.219Z,510.00
2023-03-06T03:02:23.411Z,510.00
2023-03-06T03:06:23.638Z,510.00
2023-03-06T03:10:23.749Z,503.00
2023-03-06T03:14:23.900Z,509.00
2023-03-06T03:18:24.139Z,511.00
2023-03-06T03:22:24.305Z,514.00
2023-03-06T03:26:24.522Z,506.00
2023-03-06T03:30:24.673Z,508.00
2023-03-06T03:34:24.890Z,510.00
2023-03-06T03:38:25.065Z,512.00
2023-03-06T03:42:25.296Z,506.00
2023-03-06T03:46:25.561Z,514.00
2023-03-06T03:50:25.769Z,508.00
2023-03-06T03:54:25.938Z,507.00
2023-03-06T03:58:26.152Z,506.00
2023-03-06T04:02:26.362Z,508.00
2023-03-06T04:06:26.566Z,508.00
2023-03-06T04:10:26.780Z,503.00
2023-03-06T04:14:26.975Z,509.00
2023-03-06T04:18:27.229Z,511.00
2023-03-06T04:22:27.356Z,510.00
2023-03-06T04:26:27.571Z,504.00
2023-03-06T04:30:27.817Z,508.00
2023-03-06T04:34:27.991Z,501.00
2023-03-06T04:38:28.193Z,507.00
2023-03-06T04:42:28.409Z,506.00
2023-03-06T04:46:28.630Z,509.00
2023-03-06T04:50:28.846Z,506.00
2023-03-06T04:54:29.063Z,510.00
2023-03-06T04:58:29.267Z,506.00
2023-03-06T05:02:29.518Z,507.00
2023-03-06T05:06:29.670Z,508.00
2023-03-06T05:10:29.648Z,507.00
2023-03-06T05:14:29.635Z,510.00
2023-03-06T05:18:29.592Z,508.00
2023-03-06T05:22:29.504Z,501.00
2023-03-06T05:26:29.503Z,506.00
2023-03-06T05:30:29.439Z,507.00
2023-03-06T05:34:29.426Z,508.00
2023-03-06T05:38:29.379Z,506.00
2023-03-06T05:42:29.332Z,507.00
2023-03-06T05:46:29.301Z,509.00
2023-03-06T05:50:29.272Z,515.00
2023-03-06T05:54:29.507Z,514.00
2023-03-06T05:58:29.644Z,526.00
2023-03-06T06:02:30.043Z,531.00
2023-03-06T06:06:30.110Z,534.00
2023-03-06T06:10:30.270Z,537.00
2023-03-06T06:14:30.457Z,546.00
2023-03-06T06:18:30.635Z,539.00
2023-03-06T06:22:30.799Z,549.00
2023-03-06T06:26:31.003Z,541.00
2023-03-06T06:30:31.183Z,543.00
2023-03-06T06:34:31.292Z,548.00
2023-03-06T06:38:31.450Z,564.00
2023-03-06T06:42:38.913Z,575.00
2023-03-06T06:47:18.262Z,584.00
2023-03-06T06:50:32.565Z,603.00
2023-03-06T06:54:31.565Z,676.00
2023-03-06T06:58:31.565Z,1323.00
2023-03-06T07:02:31.588Z,1416.00
2023-03-06T07:06:31.407Z,1401.00
2023-03-06T07:10:31.570Z,1395.00
2023-03-06T07:14:31.577Z,1380.00
2023-03-06T07:18:31.338Z,1423.00
2023-03-06T07:22:38.706Z,1411.00
2023-03-06T07:26:34.664Z,1414.00
2023-03-06T07:30:31.578Z,1430.00
2023-03-06T07:34:31.185Z,1448.00
2023-03-06T07:38:31.128Z,1454.00
2023-03-06T07:42:31.125Z,1459.00
2023-03-06T07:46:31.659Z,1445.00
2023-03-06T07:50:31.113Z,1458.00
2023-03-06T07:54:31.007Z,1449.00
2023-03-06T07:58:31.041Z,1435.00
2023-03-06T08:02:31.073Z,1430.00
2023-03-06T08:06:30.910Z,1409.00
2023-03-06T08:10:30.896Z,1394.00
2023-03-06T08:14:31.106Z,1382.00
2023-03-06T08:18:30.795Z,1377.00
2023-03-06T08:22:30.767Z,1356.00
2023-03-06T08:26:30.707Z,1368.00
2023-03-06T08:30:31.083Z,1340.00
2023-03-06T08:34:30.851Z,1343.00
2023-03-06T08:38:30.944Z,1335.00
2023-03-06T08:42:31.007Z,1281.00
2023-03-06T08:46:31.085Z,1281.00
2023-03-06T08:50:31.127Z,1287.00
2023-03-06T08:54:31.105Z,1321.00
2023-03-06T08:58:31.005Z,1339.00
2023-03-06T09:02:31.248Z,1353.00
2023-03-06T09:06:30.969Z,1369.00
2023-03-06T09:10:30.969Z,1394.00
2023-03-06T09:14:30.902Z,1436.00
2023-03-06T09:18:30.861Z,1463.00
2023-03-06T09:22:30.824Z,1468.00
2023-03-06T09:26:45.036Z,1491.00
2023-03-06T09:30:31.793Z,1516.00
2023-03-06T09:34:30.736Z,1523.00
2023-03-06T09:38:31.131Z,1565.00
2023-03-06T09:42:31.180Z,1571.00
2023-03-06T09:46:31.233Z,1555.00
2023-03-06T09:50:30.609Z,1739.00
2023-03-06T09:54:30.612Z,1841.00
2023-03-06T09:58:30.625Z,1857.00
2023-03-06T10:02:30.629Z,1879.00
2023-03-06T10:06:30.513Z,1850.00
2023-03-06T10:10:30.460Z,1836.00
2023-03-06T10:14:30.393Z,1816.00
2023-03-06T10:18:30.648Z,1781.00
2023-03-06T10:22:30.348Z,1768.00
2023-03-06T10:26:30.763Z,1731.00
2023-03-06T10:30:30.251Z,1702.00
2023-03-06T10:34:30.668Z,1681.00
2023-03-06T10:38:30.660Z,1661.00
2023-03-06T10:42:30.218Z,1635.00
2023-03-06T10:46:30.252Z,1544.00
2023-03-06T10:50:30.158Z,1042.00
2023-03-06T10:54:30.198Z,1187.00
2023-03-06T10:58:30.190Z,1201.00
2023-03-06T11:02:30.680Z,1202.00
2023-03-06T11:06:30.530Z,1179.00
2023-03-06T11:10:31.165Z,1202.00
2023-03-06T11:14:30.678Z,1213.00
2023-03-06T11:18:30.728Z,1239.00
2023-03-06T11:22:31.171Z,1289.00
2023-03-06T11:26:31.152Z,1359.00
2023-03-06T11:30:30.735Z,1356.00
2023-03-06T11:34:31.170Z,1357.00
2023-03-06T11:38:30.669Z,1394.00
2023-03-06T11:42:30.667Z,1361.00
2023-03-06T11:46:30.615Z,1349.00
2023-03-06T11:50:30.649Z,1358.00
2023-03-06T11:54:30.525Z,1361.00
2023-03-06T11:58:30.498Z,1378.00
2023-03-06T12:02:30.439Z,1391.00
2023-03-06T12:06:30.428Z,1388.00
2023-03-06T12:10:30.447Z,1384.00
2023-03-06T12:14:30.583Z,1385.00
2023-03-06T12:18:30.703Z,1386.00
2023-03-06T12:22:31.338Z,1389.00
2023-03-06T12:26:31.202Z,1397.00
2023-03-06T12:30:31.189Z,1428.00
2023-03-06T12:34:31.206Z,1409.00
2023-03-06T12:38:31.293Z,1425.00
2023-03-06T12:42:31.713Z,1394.00
2023-03-06T12:46:31.520Z,1354.00
2023-03-06T12:50:31.692Z,1315.00
2023-03-06T12:54:31.764Z,1276.00
2023-03-06T12:58:31.930Z,1255.00
2023-03-06T13:02:32.104Z,1210.00
2023-03-06T13:06:34.148Z,1172.00
2023-03-06T13:10:32.219Z,1156.00
2023-03-06T13:14:34.093Z,1123.00
2023-03-06T13:18:32.101Z,1090.00
2023-03-06T13:22:32.230Z,1072.00
2023-03-06T13:26:32.861Z,1047.00
2023-03-06T13:30:32.452Z,1012.00
2023-03-06T13:34:32.592Z,970.00
2023-03-06T13:38:32.754Z,966.00
2023-03-06T13:42:32.922Z,937.00
2023-03-06T13:46:33.156Z,919.00
2023-03-06T13:50:33.272Z,911.00
2023-03-06T13:54:33.459Z,894.00
2023-03-06T13:58:33.639Z,864.00
2023-03-06T14:02:33.829Z,848.00
2023-03-06T14:06:34.029Z,819.00
2023-03-06T14:10:34.159Z,806.00
2023-03-06T14:14:34.330Z,794.00
2023-03-06T14:18:34.524Z,778.00
2023-03-06T14:22:34.724Z,761.00
2023-03-06T14:26:34.923Z,729.00
2023-03-06T14:30:35.757Z,739.00
2023-03-06T14:34:35.315Z,714.00
2023-03-06T14:38:35.240Z,686.00
2023-03-06T14:42:35.205Z,697.00
2023-03-06T14:46:35.272Z,678.00
2023-03-06T14:50:35.180Z,663.00
2023-03-06T14:54:35.106Z,662.00
2023-03-06T14:58:35.100Z,659.00
2023-03-06T15:02:35.076Z,653.00
2023-03-06T15:06:35.273Z,646.00
2023-03-06T15:10:34.974Z,644.00
2023-03-06T15:14:34.981Z,638.00
2023-03-06T15:18:35.255Z,634.00
2023-03-06T15:22:34.941Z,626.00
2023-03-06T15:26:34.907Z,625.00
2023-03-06T15:30:34.869Z,623.00
2023-03-06T15:34:34.856Z,622.00
2023-03-06T15:38:34.792Z,618.00
2023-03-06T15:42:34.787Z,610.00
2023-03-06T15:46:34.765Z,608.00
2023-03-06T15:50:34.710Z,607.00
2023-03-06T15:54:34.658Z,607.00
2023-03-06T15:58:34.692Z,594.00
2023-03-06T16:02:34.618Z,595.00
2023-03-06T16:06:34.555Z,591.00
2023-03-06T16:10:34.543Z,583.00
2023-03-06T16:14:34.493Z,572.00
2023-03-06T16:18:34.457Z,572.00
2023-03-06T16:22:34.438Z,572.00
2023-03-06T16:26:34.389Z,561.00
2023-03-06T16:30:34.356Z,563.00
2023-03-06T16:34:34.317Z,558.00
2023-03-06T16:38:34.275Z,559.00
2023-03-06T16:42:34.221Z,553.00
2023-03-06T16:46:34.247Z,547.00
2023-03-06T16:50:34.194Z,540.00
2023-03-06T16:54:34.198Z,538.00
2023-03-06T16:58:34.358Z,537.00
2023-03-06T17:02:34.531Z,541.00
2023-03-06T17:06:34.748Z,532.00
2023-03-06T17:10:34.966Z,535.00
2023-03-06T17:14:34.956Z,532.00
2023-03-06T17:18:34.874Z,526.00
2023-03-06T17:22:34.839Z,518.00
2023-03-06T17:26:34.797Z,518.00
2023-03-06T17:30:34.780Z,522.00
2023-03-06T17:34:34.758Z,519.00
2023-03-06T17:38:34.711Z,515.00
2023-03-06T17:42:34.675Z,513.00
2023-03-06T17:46:34.694Z,513.00
2023-03-06T17:50:34.617Z,506.00
2023-03-06T17:54:34.559Z,506.00
2023-03-06T17:58:34.596Z,506.00
2023-03-06T18:02:34.616Z,504.00
2023-03-06T18:06:34.608Z,502.00
2023-03-06T18:10:34.549Z,505.00
2023-03-06T18:14:34.546Z,505.00
2023-03-06T18:18:34.536Z,508.00
2023-03-06T18:22:34.587Z,503.00
2023-03-06T18:26:34.519Z,507.00
2023-03-06T18:30:34.556Z,500.00
2023-03-06T18:34:34.540Z,509.00
2023-03-06T18:38:34.511Z,507.00
2023-03-06T18:42:34.498Z,502.00
2023-03-06T18:46:34.499Z,501.00
2023-03-06T18:50:34.505Z,501.00
2023-03-06T18:54:34.581Z,507.00
2023-03-06T18:58:34.470Z,513.00
2023-03-06T19:02:34.553Z,505.00
2023-03-06T19:06:34.561Z,505.00
2023-03-06T19:10:34.585Z,509.00
2023-03-06T19:14:34.653Z,503.00
2023-03-06T19:18:34.751Z,502.00
2023-03-06T19:22:34.713Z,502.00
2023-03-06T19:26:34.773Z,505.00
2023-03-06T19:30:34.808Z,506.00
2023-03-06T19:34:34.929Z,505.00
2023-03-06T19:38:34.986Z,514.00
2023-03-06T19:42:35.092Z,510.00
2023-03-06T19:46:35.110Z,505.00
2023-03-06T19:50:35.210Z,512.00
2023-03-06T19:54:35.305Z,504.00
2023-03-06T19:58:35.339Z,508.00
2023-03-06T20:02:35.428Z,502.00
2023-03-06T20:06:35.551Z,503.00
2023-03-06T20:10:35.641Z,509.00
2023-03-06T20:14:35.769Z,509.00
2023-03-06T20:18:35.781Z,508.00
2023-03-06T20:22:35.896Z,504.00
2023-03-06T20:26:36.049Z,506.00
2023-03-06T20:30:38.336Z,507.00
2023-03-06T20:34:36.229Z,509.00
2023-03-06T20:38:36.355Z,510.00
2023-03-06T20:42:36.443Z,507.00
2023-03-06T20:46:36.610Z,510.00
2023-03-06T20:50:36.693Z,510.00
2023-03-06T20:54:36.836Z,504.00
2023-03-06T20:58:36.955Z,513.00
2023-03-06T21:02:37.121Z,511.00
2023-03-06T21:06:37.260Z,510.00
2023-03-06T21:10:37.418Z,513.00
2023-03-06T21:14:37.564Z,508.00
2023-03-06T21:18:37.733Z,501.00
2023-03-06T21:22:37.883Z,503.00
2023-03-06T21:26:38.039Z,507.00
2023-03-06T21:30:38.193Z,511.00
2023-03-06T21:34:38.375Z,510.00
2023-03-06T21:38:38.565Z,509.00
2023-03-06T21:42:38.720Z,504.00
2023-03-06T21:46:38.822Z,503.00
2023-03-06T21:50:38.989Z,509.00
2023-03-06T21:54:39.148Z,505.00
2023-03-06T21:58:39.339Z,508.00
2023-03-06T22:02:39.894Z,506.00
2023-03-06T22:06:39.640Z,512.00
2023-03-06T22:10:39.771Z,510.00
2023-03-06T22:14:39.923Z,504.00
2023-03-06T22:18:40.070Z,507.00
2023-03-06T22:22:40.201Z,506.00
2023-03-06T22:26:40.339Z,503.00
2023-03-06T22:30:40.527Z,507.00
2023-03-06T22:34:40.648Z,505.00
2023-03-06T22:38:40.839Z,509.00
2023-03-06T22:42:40.944Z,507.00
2023-03-06T22:46:41.172Z,505.00
2023-03-06T22:50:41.354Z,509.00
2023-03-06T22:54:41.505Z,506.00
2023-03-06T22:58:41.689Z,501.00
2023-03-06T23:02:41.858Z,501.00
2023-03-06T23:06:42.083Z,508.00
2023-03-06T23:10:42.247Z,512.00
2023-03-06T23:14:42.423Z,506.00
2023-03-06T23:18:42.533Z,504.00
2023-03-06T23:22:42.676Z,503.00
2023-03-06T23:26:42.893Z,501.00
2023-03-06T23:30:43.055Z,505.00
2023-03-06T23:34:43.265Z,504.00
2023-03-06T23:38:43.394Z,507.00
2023-03-06T23:42:43.642Z,510.00
2023-03-06T23:46:43.850Z,506.00
2023-03-06T23:50:44.020Z,504.00
2023-03-06T23:54:44.264Z,505.00
2023-03-06T23:58:44.494Z,509.00
